Time;durP1;ratioP1;P1;durP2;ratioP2;P2;SDS_P1;SDS_P2;PMS_P1;PMS_P2;Temp;Humidity;BMP_temperature;BMP_pressure;BME280_temperature;BME280_humidity;BME280_pressure;Samples;Min_cycle;Max_cycle;Signal;HPM_P1;HPM_P2
2021/03/12 00:04:38;;;;;;;16.57;5.17;;;;;;;5.27;87.56;98871.27;5145674;56;1132566;-77
2021/03/12 00:09:44;;;;;;;9.20;2.70;;;;;;;5.29;87.14;98870.20;5145313;56;1136407;-74
2021/03/12 00:14:50;;;;;;;15.83;3.63;;;;;;;5.29;87.18;98866.27;5145590;56;1134383;-76
2021/03/12 00:19:55;;;;;;;10.53;4.47;;;;;;;5.28;86.69;98877.70;5145200;56;1136239;-76
2021/03/12 00:25:00;;;;;;;18.13;4.03;;;;;;;5.24;86.80;98897.25;5145221;56;1136461;-76
2021/03/12 00:30:09;;;;;;;14.40;3.40;;;;;;;5.25;86.95;98904.16;5145729;56;1134657;-76
2021/03/12 00:35:16;;;;;;;10.58;3.10;;;;;;;5.25;86.72;98904.16;5145749;56;1134772;-76
2021/03/12 00:40:26;;;;;;;7.63;1.77;;;;;;;5.24;86.68;98918.22;5145305;56;1136507;-75
2021/03/12 00:45:36;;;;;;;5.73;2.33;;;;;;;5.26;86.40;98907.61;5144198;56;1134748;-74
2021/03/12 00:50:45;;;;;;;8.40;2.50;;;;;;;5.26;86.46;98906.30;5144546;56;1134801;-74
2021/03/12 00:55:53;;;;;;;13.37;4.13;;;;;;;5.28;86.32;98908.33;5145011;56;1132608;-74
2021/03/12 01:00:59;;;;;;;6.85;2.00;;;;;;;5.32;86.15;98910.22;5150732;56;1137061;-77
2021/03/12 01:06:07;;;;;;;10.03;2.22;;;;;;;5.30;86.04;98911.17;5134454;56;1132703;-76
2021/03/12 01:11:14;;;;;;;6.28;1.98;;;;;;;5.31;85.74;98905.46;5144322;56;1134702;-75
2021/03/12 01:16:21;;;;;;;9.10;2.63;;;;;;;5.26;85.56;98911.55;5145306;56;1134749;-76
2021/03/12 01:21:27;;;;;;;9.77;2.10;;;;;;;5.21;85.65;98918.45;5145339;56;1134937;-76
2021/03/12 01:26:34;;;;;;;6.70;2.62;;;;;;;5.19;85.67;98916.95;5145315;56;1135110;-75
2021/03/12 01:31:47;;;;;;;8.17;2.03;;;;;;;5.16;85.75;98919.81;5145823;56;1135297;-75
2021/03/12 01:36:54;;;;;;;10.70;3.22;;;;;;;5.12;86.04;98914.45;5145010;56;1134872;-75
2021/03/12 01:42:00;;;;;;;7.35;2.50;;;;;;;5.11;86.32;98912.31;5147730;56;1136834;-77
2021/03/12 01:47:07;;;;;;;9.55;3.15;;;;;;;5.12;86.35;98919.69;5130127;56;1134739;-76
2021/03/12 01:52:14;;;;;;;7.15;1.82;;;;;;;5.11;86.10;98909.69;5145991;56;1132667;-76
2021/03/12 01:57:19;;;;;;;11.15;2.52;;;;;;;5.09;86.34;98918.63;5145780;56;1134938;-75
2021/03/12 02:02:27;;;;;;;10.17;3.43;;;;;;;4.98;85.73;98914.25;5144376;56;1134356;-75
2021/03/12 02:07:40;;;;;;;11.07;2.70;;;;;;;4.98;85.73;98914.25;5145268;56;1136368;-74
2021/03/12 02:13:04;;;;;;;11.03;2.53;;;;;;;4.99;86.17;98926.40;5139843;56;1136337;-73
2021/03/12 02:18:14;;;;;;;12.35;2.05;;;;;;;4.97;86.23;98929.62;5141907;56;1136462;-76
2021/03/12 02:23:43;;;;;;;7.73;1.90;;;;;;;4.92;86.41;98926.05;5102063;56;1136243;-74
2021/03/12 02:28:50;;;;;;;10.93;3.03;;;;;;;4.91;86.20;98928.78;5136773;56;1134365;-76
2021/03/12 02:33:59;;;;;;;11.23;2.40;;;;;;;4.88;86.34;98927.27;5136743;56;1136375;-77
2021/03/12 02:39:09;;;;;;;9.15;1.90;;;;;;;4.86;86.53;98928.34;5136675;57;1136557;-76
2021/03/12 02:44:17;;;;;;;7.33;2.87;;;;;;;4.80;86.95;98926.19;5137044;57;1132180;-76
2021/03/12 02:49:27;;;;;;;10.37;2.07;;;;;;;4.78;86.92;98934.64;5135366;56;1132154;-76
2021/03/12 02:54:34;;;;;;;11.37;2.90;;;;;;;4.76;87.15;98928.69;5136591;56;1134189;-76
2021/03/12 02:59:41;;;;;;;9.97;2.50;;;;;;;4.75;87.87;98934.41;5136887;56;1134219;-75
2021/03/12 03:04:53;;;;;;;9.77;2.47;;;;;;;4.80;87.93;98939.29;5135135;56;1132456;-77
2021/03/12 03:10:13;;;;;;;9.73;2.83;;;;;;;4.84;88.52;98956.44;5136694;56;1132162;-74
2021/03/12 03:15:22;;;;;;;12.25;3.70;;;;;;;4.88;88.02;98959.17;5136827;56;1132248;-77
2021/03/12 03:20:30;;;;;;;5.73;1.90;;;;;;;4.94;88.14;98953.44;5141923;56;1134632;-76
2021/03/12 03:25:36;;;;;;;2.40;1.80;;;;;;;4.98;88.39;98959.27;5145668;56;1132258;-76
2021/03/12 03:30:43;;;;;;;10.53;1.87;;;;;;;5.01;87.97;98961.17;5145351;56;1132571;-74
2021/03/12 03:35:50;;;;;;;5.30;1.73;;;;;;;5.04;88.17;98954.36;5145383;56;1134465;-75
2021/03/12 03:40:57;;;;;;;1.10;1.00;;;;;;;5.05;88.31;98961.27;5145669;56;1132531;-74
2021/03/12 03:46:07;;;;;;;4.77;2.20;;;;;;;5.07;88.32;98952.81;5146031;56;1132606;-75
2021/03/12 03:51:22;;;;;;;28.65;21.17;;;;;;;5.13;87.95;98956.73;5145862;56;1132528;-77
2021/03/12 03:56:29;;;;;;;122.60;67.03;;;;;;;5.12;87.94;98957.22;5145537;56;1136259;-75
2021/03/12 04:01:38;;;;;;;155.07;90.03;;;;;;;5.14;87.56;98962.33;5145375;56;1138361;-76
2021/03/12 04:06:47;;;;;;;119.17;72.30;;;;;;;5.13;87.56;98977.70;5145097;56;1138445;-75
2021/03/12 04:11:54;;;;;;;74.17;51.10;;;;;;;5.12;87.38;98977.34;5144940;56;1138591;-75
2021/03/12 04:17:03;;;;;;;9.07;6.10;;;;;;;5.13;87.25;98989.49;5145229;56;1136283;-75
2021/03/12 04:22:11;;;;;;;10.08;3.74;;;;;;;5.13;87.01;98982.94;5140605;56;1132450;-74
2021/03/12 04:27:18;;;;;;;4.00;2.33;;;;;;;5.13;86.71;98993.42;5136579;57;1134684;-77
2021/03/12 04:32:24;;;;;;;11.30;3.53;;;;;;;5.08;86.44;98990.33;5078305;56;1132116;-76
2021/03/12 04:37:30;;;;;;;6.00;3.33;;;;;;;5.08;86.33;99007.36;5091940;56;1134204;-76
2021/03/12 04:42:38;;;;;;;3.93;1.67;;;;;;;5.07;86.06;99013.55;5091956;56;1132194;-76
2021/03/12 04:47:46;;;;;;;5.47;2.20;;;;;;;5.06;86.01;99011.41;5104182;56;1132143;-76
2021/03/12 04:52:53;;;;;;;7.00;2.07;;;;;;;5.10;85.94;99023.80;5128922;56;1132540;-78
2021/03/12 04:58:00;;;;;;;4.20;1.00;;;;;;;5.10;85.75;99026.41;5148865;56;1132163;-77
2021/03/12 05:03:06;;;;;;;8.87;2.60;;;;;;;5.07;85.81;99039.28;5010591;57;1135574;-77
2021/03/12 05:08:14;;;;;;;2.62;2.17;;;;;;;5.09;85.80;99038.69;5143230;56;1132870;-77
2021/03/12 05:13:31;;;;;;;7.80;2.87;;;;;;;5.12;85.86;99042.38;5140417;56;1132945;-77
2021/03/12 05:18:36;;;;;;;5.70;1.40;;;;;;;5.12;85.66;99044.17;5148704;56;1132955;-77
2021/03/12 05:23:43;;;;;;;9.07;2.13;;;;;;;5.10;85.73;99049.52;5125619;56;1132240;-76
2021/03/12 05:28:49;;;;;;;6.63;2.00;;;;;;;5.10;85.31;99056.55;5110186;57;1134410;-77
2021/03/12 05:33:55;;;;;;;6.27;2.80;;;;;;;5.09;85.41;99061.44;5118425;56;1134354;-78
2021/03/12 05:39:02;;;;;;;5.97;1.37;;;;;;;5.10;85.49;99073.59;5122733;57;1134529;-79
2021/03/12 05:44:09;;;;;;;3.37;2.27;;;;;;;5.11;85.87;99077.88;5140195;56;1132297;-78
2021/03/12 05:49:16;;;;;;;4.03;1.80;;;;;;;5.12;85.93;99078.23;5140257;57;1132928;-77
2021/03/12 05:54:22;;;;;;;2.27;1.73;;;;;;;5.14;85.78;99075.02;5130249;56;1132309;-79
2021/03/12 05:59:30;;;;;;;3.17;1.77;;;;;;;5.15;85.69;99078.84;4868138;58;1132714;-77
2021/03/12 06:04:37;;;;;;;2.97;1.37;;;;;;;5.17;85.47;99080.03;5017701;57;1132862;-78
2021/03/12 06:09:45;;;;;;;3.60;1.50;;;;;;;5.18;85.42;99108.74;5003214;57;1132760;-77
2021/03/12 06:15:00;;;;;;;5.65;2.30;;;;;;;5.21;85.41;99111.09;4994129;57;1132740;-77
2021/03/12 06:20:20;;;;;;;2.42;2.00;;;;;;;5.25;85.44;99127.42;5013808;56;1132914;-79
2021/03/12 06:25:32;;;;;;;5.37;1.65;;;;;;;5.28;85.33;99131.13;5150389;56;1133109;-77
2021/03/12 06:30:40;;;;;;;11.90;2.50;;;;;;;5.29;85.62;99137.56;5127359;56;1132166;-75
2021/03/12 06:35:47;;;;;;;4.27;2.10;;;;;;;5.32;85.69;99165.80;5112285;56;1134219;-77
2021/03/12 06:40:54;;;;;;;2.70;1.73;;;;;;;5.34;85.81;99171.29;5127524;56;1132670;-79
2021/03/12 06:46:04;;;;;;;1.63;1.53;;;;;;;5.37;85.86;99169.72;5138143;56;1132194;-77
2021/03/12 06:51:26;;;;;;;4.80;2.70;;;;;;;5.37;85.86;99185.45;5146925;56;1132352;-77
2021/03/12 06:56:33;;;;;;;2.10;1.87;;;;;;;5.39;85.92;99191.89;5149225;56;1132229;-77
2021/03/12 07:01:41;;;;;;;2.23;1.77;;;;;;;5.40;85.93;99203.57;5149524;56;1132823;-78
2021/03/12 07:06:50;;;;;;;2.00;1.53;;;;;;;5.45;85.64;99221.58;5146226;55;1132474;-74
2021/03/12 07:12:05;;;;;;;3.43;2.03;;;;;;;5.50;85.42;99236.48;5149314;56;1132472;-76
2021/03/12 07:17:28;;;;;;;6.77;1.80;;;;;;;5.52;85.06;99247.67;5149942;56;1132371;-79
2021/03/12 07:22:41;;;;;;;3.98;2.35;;;;;;;5.51;84.60;99244.69;5148728;56;1132320;-76
2021/03/12 07:27:51;;;;;;;6.43;2.80;;;;;;;5.53;84.22;99261.14;5091619;56;1132572;-76
2021/03/12 07:33:00;;;;;;;5.05;1.90;;;;;;;5.52;83.94;99270.80;5064677;57;1132641;-78
2021/03/12 07:38:11;;;;;;;4.00;2.20;;;;;;;5.56;83.62;99284.52;5064445;57;1133876;-77
2021/03/12 07:43:19;;;;;;;6.53;2.10;;;;;;;5.60;83.46;99285.95;5078073;56;1132625;-77
2021/03/12 07:48:33;;;;;;;1.80;1.60;;;;;;;5.68;83.01;99299.30;5090313;56;1132448;-78
2021/03/12 07:53:56;;;;;;;3.57;2.07;;;;;;;5.76;82.61;99307.91;5092008;56;1132202;-77
2021/03/12 07:59:07;;;;;;;10.93;2.45;;;;;;;5.76;82.31;99306.13;5107902;56;1132678;-77
2021/03/12 08:04:33;;;;;;;15.67;5.13;;;;;;;5.79;81.82;99306.37;4987321;58;1134777;-74
2021/03/12 08:09:55;;;;;;;2.98;2.08;;;;;;;5.87;82.06;99315.30;5050618;57;1134363;-78
2021/03/12 08:15:34;;;;;;;7.17;2.27;;;;;;;5.92;80.78;99318.92;5074321;57;1132372;-79
2021/03/12 08:20:44;;;;;;;7.23;2.37;;;;;;;5.96;80.77;99331.67;5072827;57;1132328;-76
2021/03/12 08:25:54;;;;;;;1.47;1.37;;;;;;;6.04;80.15;99354.71;5067533;57;1132177;-79
2021/03/12 08:31:08;;;;;;;4.45;1.65;;;;;;;6.12;80.22;99360.19;5077492;57;1132118;-79
2021/03/12 08:36:31;;;;;;;5.90;1.50;;;;;;;6.11;79.84;99376.08;5026192;57;1132653;-78
2021/03/12 08:41:53;;;;;;;6.10;2.10;;;;;;;6.06;79.42;99379.53;5075076;57;1132249;-75
2021/03/12 08:47:04;;;;;;;6.60;1.57;;;;;;;5.97;78.69;99385.83;5075350;57;1132477;-77
2021/03/12 08:52:17;;;;;;;4.77;1.67;;;;;;;5.99;78.65;99386.55;5074665;57;1132629;-79
2021/03/12 08:57:25;;;;;;;10.90;2.17;;;;;;;6.08;78.79;99409.13;5074883;57;1132645;-76
2021/03/12 09:02:32;;;;;;;4.17;1.77;;;;;;;6.26;77.81;99399.84;5073516;57;1134428;-78
2021/03/12 09:07:58;;;;;;;4.83;2.27;;;;;;;6.33;76.36;99396.59;5046059;57;1132560;-78
2021/03/12 09:13:19;;;;;;;7.53;2.17;;;;;;;6.43;77.71;99398.02;5038562;57;1132416;-79
2021/03/12 09:18:29;;;;;;;4.12;2.10;;;;;;;6.67;76.78;99396.09;5063343;57;1134768;-76
2021/03/12 09:23:51;;;;;;;5.62;2.00;;;;;;;6.62;75.65;99406.13;5069898;57;1132376;-78
2021/03/12 09:29:03;;;;;;;4.13;2.10;;;;;;;6.52;75.82;99410.92;5051683;56;1132790;-77
2021/03/12 09:34:16;;;;;;;6.50;2.97;;;;;;;6.47;75.92;99413.06;5158995;56;1132889;-78
2021/03/12 09:39:27;;;;;;;8.65;4.28;;;;;;;6.52;76.18;99409.13;5159441;56;1132582;-80
2021/03/12 09:44:35;;;;;;;3.70;3.10;;;;;;;6.92;75.17;99416.47;5148763;56;1134791;-78
2021/03/12 09:49:44;;;;;;;10.13;2.83;;;;;;;7.27;72.89;99423.67;5138404;56;1134349;-78
2021/03/12 09:54:54;;;;;;;19.77;6.80;;;;;;;7.59;72.29;99432.88;5138216;56;1136374;-75
2021/03/12 10:00:01;;;;;;;6.70;3.17;;;;;;;7.49;72.62;99439.00;5140415;56;1136409;-77
2021/03/12 10:05:10;;;;;;;7.63;3.77;;;;;;;7.28;72.68;99443.75;5155393;56;1221148;-78
2021/03/12 10:10:37;;;;;;;3.93;2.23;;;;;;;7.21;72.11;99445.20;5159398;56;1132150;-79
2021/03/12 10:15:44;;;;;;;10.03;3.33;;;;;;;7.00;72.28;99453.03;5062360;57;1132919;-76
2021/03/12 10:20:51;;;;;;;16.77;5.03;;;;;;;6.91;72.62;99452.91;5156601;56;1134819;-77
2021/03/12 10:25:57;;;;;;;2.87;2.20;;;;;;;6.90;72.24;99452.55;4978963;58;1134864;-77
2021/03/12 10:31:02;;;;;;;2.40;2.10;;;;;;;6.94;71.39;99453.98;5157192;56;1132142;-76
2021/03/12 10:36:12;;;;;;;1.80;1.40;;;;;;;6.93;70.59;99462.34;5159562;56;1132725;-79
2021/03/12 10:41:25;;;;;;;7.55;2.67;;;;;;;6.97;70.75;99461.16;5159408;56;1132585;-77
2021/03/12 10:46:31;;;;;;;17.65;6.40;;;;;;;7.01;70.48;99470.95;4978223;58;1132705;-75
2021/03/12 10:51:42;;;;;;;2.07;1.90;;;;;;;7.00;71.01;99474.06;5101607;56;1134367;-76
2021/03/12 10:56:49;;;;;;;2.57;1.90;;;;;;;7.05;69.28;99485.03;5147994;56;1132341;-78
2021/03/12 11:01:54;;;;;;;5.93;2.30;;;;;;;7.00;68.64;99481.11;5147212;56;1132155;-77
2021/03/12 11:07:01;;;;;;;9.50;2.67;;;;;;;7.01;69.21;99486.25;5040464;58;1132452;-76
2021/03/12 11:12:07;;;;;;;4.70;1.93;;;;;;;7.05;68.66;99499.97;4998507;57;1132568;-75
2021/03/12 11:17:13;;;;;;;14.00;3.40;;;;;;;7.01;68.47;99487.56;5002050;57;1132749;-79
2021/03/12 11:22:18;;;;;;;4.42;1.72;;;;;;;7.07;70.14;99500.69;5009105;57;1134659;-77
2021/03/12 11:27:24;;;;;;;4.50;1.92;;;;;;;7.08;70.05;99512.87;4978827;58;1132556;-75
2021/03/12 11:32:31;;;;;;;6.57;2.13;;;;;;;7.20;70.02;99515.84;4935565;58;1132486;-78
2021/03/12 11:37:37;;;;;;;6.73;1.93;;;;;;;7.31;67.99;99515.84;4908305;58;1132600;-75
2021/03/12 11:42:43;;;;;;;2.43;1.30;;;;;;;7.46;67.07;99510.30;4911671;58;1132410;-77
2021/03/12 11:47:53;;;;;;;7.23;2.77;;;;;;;7.71;66.77;99512.13;4912152;58;1132617;-78
2021/03/12 11:52:57;;;;;;;5.03;2.37;;;;;;;7.82;65.24;99516.50;4913180;58;1132231;-79
2021/03/12 11:58:03;;;;;;;4.80;1.87;;;;;;;7.89;65.90;99516.36;4912609;58;1132433;-79
2021/03/12 12:03:08;;;;;;;4.93;1.73;;;;;;;8.22;63.17;99519.31;4969067;58;1132125;-80
2021/03/12 12:08:14;;;;;;;4.93;1.90;;;;;;;8.57;58.16;99515.51;4994482;58;1132646;-78
2021/03/12 12:13:19;;;;;;;7.27;2.00;;;;;;;8.39;58.26;99517.45;4995354;58;1132210;-77
2021/03/12 12:18:26;;;;;;;3.35;1.65;;;;;;;8.18;59.36;99519.69;4995088;58;1132374;-77
2021/03/12 12:23:31;;;;;;;4.00;1.80;;;;;;;8.17;61.41;99533.34;4995237;58;1132251;-77
2021/03/12 12:28:37;;;;;;;2.53;1.37;;;;;;;8.14;61.57;99525.69;4995414;58;1132766;-76
2021/03/12 12:33:44;;;;;;;2.70;1.73;;;;;;;8.07;61.06;99507.42;4995779;58;1132215;-77
2021/03/12 12:38:50;;;;;;;2.33;2.13;;;;;;;7.95;61.19;99529.00;4995931;58;1132391;-77
2021/03/12 12:43:56;;;;;;;2.07;1.57;;;;;;;7.97;61.15;99531.03;4986123;57;1132105;-78
2021/03/12 12:49:02;;;;;;;3.17;1.60;;;;;;;8.22;61.57;99531.64;5073603;57;1132310;-79
2021/03/12 12:54:10;;;;;;;2.33;0.90;;;;;;;8.21;60.50;99537.39;5072733;57;1132627;-81
2021/03/12 12:59:16;;;;;;;1.80;1.00;;;;;;;7.78;62.83;99553.27;5073110;57;1133063;-80
2021/03/12 13:04:21;;;;;;;4.22;1.06;;;;;;;7.40;63.08;99557.17;5072825;57;1132506;-80
2021/03/12 13:09:27;;;;;;;4.22;1.20;;;;;;;7.44;63.93;99563.03;5072986;57;1132428;-79
2021/03/12 13:14:33;;;;;;;4.33;1.90;;;;;;;7.80;63.16;99548.69;5140442;56;1132351;-78
2021/03/12 13:19:39;;;;;;;2.70;1.47;;;;;;;8.09;62.52;99560.80;5154817;56;1132564;-78
2021/03/12 13:24:45;;;;;;;3.10;1.92;;;;;;;8.16;61.78;99558.00;5140644;56;1132531;-78
2021/03/12 13:29:50;;;;;;;5.17;1.73;;;;;;;7.99;63.60;99550.66;5137238;56;1132272;-78
2021/03/12 13:34:56;;;;;;;2.87;1.47;;;;;;;7.87;64.35;99545.09;5137431;56;1132312;-78
2021/03/12 13:40:04;;;;;;;2.37;0.70;;;;;;;7.66;68.12;99609.02;5137897;56;1132310;-79
2021/03/12 13:45:09;;;;;;;0.97;0.87;;;;;;;;;;5138876;56;1132181;-79
2021/03/12 13:50:15;;;;;;;3.83;1.93;;;;;;;6.08;74.91;99608.14;5165042;56;815933;-79
2021/03/12 13:55:21;;;;;;;1.92;0.78;;;;;;;5.95;74.41;99599.02;5139088;56;1132269;-78
2021/03/12 14:00:27;;;;;;;3.33;1.20;;;;;;;5.96;74.96;99598.04;5121827;56;1132599;-78
2021/03/12 14:05:33;;;;;;;2.43;1.30;;;;;;;6.28;75.59;99607.95;5086668;56;1132447;-77
2021/03/12 14:10:39;;;;;;;2.83;1.53;;;;;;;6.65;72.77;99605.56;5086240;56;1134300;-77
2021/03/12 14:15:44;;;;;;;3.40;1.37;;;;;;;7.03;72.83;99602.61;5086456;56;1132155;-76
2021/03/12 14:20:50;;;;;;;1.97;1.47;;;;;;;7.34;71.01;99593.16;5086390;56;1134438;-78
2021/03/12 14:25:56;;;;;;;4.93;2.60;;;;;;;7.64;70.54;99596.46;5087286;56;1132102;-79
2021/03/12 14:31:18;;;;;;;;;;;;;;;7.94;69.14;99594.98;5110926;56;1132513;-78
2021/03/12 14:36:24;;;;;;;5.87;2.52;;;;;;;8.16;67.66;99594.88;5102050;56;971777;-78
2021/03/12 14:41:30;;;;;;;3.13;1.70;;;;;;;8.35;66.58;99596.38;5150044;56;1130663;-77
2021/03/12 14:46:38;;;;;;;26.27;7.50;;;;;;;8.50;64.92;99599.54;5149928;56;1132859;-77
2021/03/12 14:51:45;;;;;;;2.97;2.33;;;;;;;8.62;64.42;99593.23;5146482;56;1134722;-78
2021/03/12 14:56:54;;;;;;;3.03;2.10;;;;;;;8.78;61.11;99577.79;5107047;56;1132985;-78
2021/03/12 15:01:59;;;;;;;4.53;2.43;;;;;;;8.88;60.80;99586.22;5121730;56;1132633;-77
2021/03/12 15:07:05;;;;;;;5.03;1.50;;;;;;;8.94;59.63;99591.82;5115194;56;1132697;-77
2021/03/12 15:12:12;;;;;;;6.90;1.80;;;;;;;8.92;56.13;99588.48;5116402;56;1132642;-77
2021/03/12 15:17:18;;;;;;;2.47;1.53;;;;;;;8.95;57.31;99596.61;5117722;56;1132602;-78
2021/03/12 15:22:27;;;;;;;3.27;2.15;;;;;;;8.85;55.40;99595.73;5117591;56;1132640;-78
2021/03/12 15:27:33;;;;;;;12.37;5.47;;;;;;;8.87;55.71;99599.89;5102396;56;1132462;-77
2021/03/12 15:32:39;;;;;;;11.13;6.63;;;;;;;8.93;57.65;99595.42;5087895;56;1134905;-77
2021/03/12 15:37:46;;;;;;;309.93;181.30;;;;;;;8.85;56.11;99595.25;5113153;56;1134325;-78
2021/03/12 15:42:56;;;;;;;47.60;19.90;;;;;;;8.86;54.84;99601.37;5053985;56;1141138;-78
2021/03/12 15:48:04;;;;;;;175.17;70.40;;;;;;;8.87;53.78;99595.94;5084396;56;1136455;-78
2021/03/12 15:53:11;;;;;;;119.63;83.73;;;;;;;8.68;53.80;99586.14;5083425;56;1138371;-78
2021/03/12 15:58:17;;;;;;;51.30;29.17;;;;;;;8.51;53.63;99600.38;5083207;56;1138366;-78
2021/03/12 16:03:23;;;;;;;10.45;6.67;;;;;;;8.64;53.73;99596.58;5084149;56;1136554;-77
2021/03/12 16:08:31;;;;;;;5.30;2.27;;;;;;;8.83;53.80;99593.71;5085647;57;1134137;-77
2021/03/12 16:13:37;;;;;;;14.30;4.37;;;;;;;9.18;52.64;99606.01;5084986;57;1132290;-77
2021/03/12 16:18:45;;;;;;;37.63;21.40;;;;;;;8.60;53.87;99593.84;5085236;57;1134243;-78
2021/03/12 16:23:52;;;;;;;66.10;49.63;;;;;;;8.20;55.70;99597.63;5082519;57;1136617;-78
2021/03/12 16:29:03;;;;;;;77.70;52.17;;;;;;;7.91;57.13;99602.64;5064400;57;1136480;-78
2021/03/12 16:34:08;;;;;;;37.70;29.60;;;;;;;7.70;58.24;99605.19;5085027;57;1137301;-78
2021/03/12 16:39:20;;;;;;;15.25;5.42;;;;;;;7.52;58.81;99609.29;5066527;57;1136396;-78
2021/03/12 16:44:30;;;;;;;17.17;8.35;;;;;;;7.36;59.68;99615.41;5072702;57;1134416;-78
2021/03/12 16:49:41;;;;;;;25.50;11.97;;;;;;;7.22;60.35;99624.38;5074533;57;1134754;-78
2021/03/12 16:54:47;;;;;;;27.60;8.67;;;;;;;7.06;60.96;99623.41;5074021;57;1137007;-78
2021/03/12 16:59:52;;;;;;;21.93;7.83;;;;;;;7.00;60.84;99630.48;5074465;57;1134904;-78
2021/03/12 17:04:58;;;;;;;35.57;12.77;;;;;;;6.93;60.98;99629.73;5074074;57;1134908;-78
2021/03/12 17:10:06;;;;;;;33.93;11.20;;;;;;;6.85;61.06;99632.97;5074325;57;1136770;-78
2021/03/12 17:15:12;;;;;;;52.77;14.07;;;;;;;6.80;61.13;99637.73;5073892;57;1136835;-78
2021/03/12 17:20:18;;;;;;;137.60;70.80;;;;;;;6.74;61.47;99642.59;5074679;57;1136814;-79
2021/03/12 17:25:24;;;;;;;112.90;37.73;;;;;;;6.69;61.86;99641.65;5074034;57;1138861;-78
2021/03/12 17:30:30;;;;;;;78.07;41.30;;;;;;;6.57;62.69;99644.70;5074144;57;1139030;-77
2021/03/12 17:35:36;;;;;;;26.57;15.10;;;;;;;6.48;63.24;99646.72;5074309;57;1136833;-80
2021/03/12 17:40:42;;;;;;;64.57;27.90;;;;;;;6.38;63.83;99647.52;5074860;57;1137003;-80
2021/03/12 17:45:47;;;;;;;56.10;20.50;;;;;;;6.28;64.12;99649.50;5074894;57;1136889;-82
2021/03/12 17:50:53;;;;;;;14.20;6.53;;;;;;;6.24;64.45;99648.07;5075639;57;1136423;-79
2021/03/12 17:55:59;;;;;;;30.93;16.70;;;;;;;6.17;65.37;99646.83;5075333;57;1134211;-80
2021/03/12 18:01:04;;;;;;;28.37;12.07;;;;;;;6.12;65.28;99655.51;5075644;57;1136518;-80
2021/03/12 18:06:12;;;;;;;57.67;21.93;;;;;;;6.10;65.46;99653.97;5075215;57;1136835;-80
2021/03/12 18:11:17;;;;;;;35.63;12.33;;;;;;;6.11;65.41;99656.45;5076085;57;1136596;-81
2021/03/12 18:16:23;;;;;;;23.50;7.75;;;;;;;6.15;65.50;99655.29;5076131;57;1138805;-79
2021/03/12 18:21:28;;;;;;;14.43;7.28;;;;;;;6.12;65.72;99649.42;5076379;57;1134897;-80
2021/03/12 18:26:34;;;;;;;27.67;10.77;;;;;;;6.07;65.83;99648.47;5075714;57;1134852;-79
2021/03/12 18:31:40;;;;;;;64.70;26.23;;;;;;;6.02;65.96;99646.64;5075536;57;1137083;-84
2021/03/12 18:36:45;;;;;;;23.77;10.53;;;;;;;5.98;66.11;99654.36;5075274;57;1137034;-80
2021/03/12 18:41:51;;;;;;;25.17;10.97;;;;;;;5.96;66.38;99646.59;5075731;57;1137309;-83
2021/03/12 18:46:56;;;;;;;31.73;15.20;;;;;;;5.95;66.40;99648.05;5076030;57;1136844;-80
2021/03/12 18:52:04;;;;;;;23.40;9.70;;;;;;;5.93;66.51;99652.09;5075841;57;1137023;-79
2021/03/12 18:57:10;;;;;;;28.73;14.07;;;;;;;5.89;66.69;99647.16;4902511;59;1134971;-82
2021/03/12 19:02:16;;;;;;;46.23;26.87;;;;;;;5.86;66.76;99646.03;5075957;57;1136834;-80
2021/03/12 19:07:21;;;;;;;96.87;44.27;;;;;;;5.87;66.72;99647.24;5055149;57;1141342;-80
2021/03/12 19:12:27;;;;;;;66.53;32.10;;;;;;;5.84;66.80;99638.27;5076237;57;1136733;-81
2021/03/12 19:17:32;;;;;;;36.17;17.02;;;;;;;5.81;66.88;99638.48;5075221;57;1136827;-82
2021/03/12 19:22:39;;;;;;;444.37;156.40;;;;;;;5.81;66.92;99634.55;5076114;57;1136879;-80
2021/03/12 19:27:45;;;;;;;245.73;77.87;;;;;;;5.82;66.91;99634.91;5075435;57;1140956;-81
2021/03/12 19:32:53;;;;;;;187.90;52.60;;;;;;;5.87;66.80;99634.59;5114516;56;1141156;-79
2021/03/12 19:37:59;;;;;;;135.17;39.97;;;;;;;5.85;66.72;99628.61;5126151;56;1138951;-79
2021/03/12 19:43:11;;;;;;;35.70;13.20;;;;;;;5.76;66.66;99623.57;5101394;56;1139092;-79
2021/03/12 19:48:13;;;;;;;32.37;14.33;;;;;;;5.69;66.52;99624.11;5130129;56;1137191;-79
2021/03/12 19:53:18;;;;;;;32.20;11.17;;;;;;;5.61;66.53;99618.11;5107176;56;1136771;-79
2021/03/12 19:58:24;;;;;;;26.33;8.27;;;;;;;5.54;66.33;99623.41;5097634;56;1137117;-80
2021/03/12 20:03:30;;;;;;;22.32;7.78;;;;;;;5.53;65.88;99624.36;5141994;56;1134886;-78
2021/03/12 20:08:35;;;;;;;12.00;5.35;;;;;;;5.55;65.76;99615.91;5136947;56;1134741;-78
2021/03/12 20:13:41;;;;;;;15.80;6.40;;;;;;;5.52;65.47;99618.27;5151027;56;1134640;-76
2021/03/12 20:18:46;;;;;;;15.13;6.80;;;;;;;5.51;65.09;99613.13;5150080;56;1134324;-78
2021/03/12 20:23:52;;;;;;;15.20;6.13;;;;;;;5.49;65.26;99612.44;5149015;56;1134559;-80
2021/03/12 20:28:57;;;;;;;22.83;8.93;;;;;;;5.48;65.04;99605.04;5138117;56;1134337;-81
2021/03/12 20:34:03;;;;;;;12.77;5.53;;;;;;;5.45;65.18;99600.01;5148969;56;1134771;-81
2021/03/12 20:39:11;;;;;;;19.53;6.83;;;;;;;5.43;64.37;99589.25;5150135;56;1134426;-81
2021/03/12 20:44:18;;;;;;;14.03;5.17;;;;;;;5.43;64.66;99591.88;5142360;56;1134277;-84
2021/03/12 20:49:24;;;;;;;26.33;7.77;;;;;;;5.42;63.97;99588.89;5090419;56;1143949;-80
2021/03/12 20:54:31;;;;;;;24.05;8.13;;;;;;;5.40;64.20;99577.67;5110147;56;1134238;-82
2021/03/12 20:59:38;;;;;;;18.07;5.90;;;;;;;5.35;64.23;99577.98;5146988;56;1134873;-79
2021/03/12 21:04:46;;;;;;;21.63;8.10;;;;;;;5.35;63.85;99574.05;5146064;56;1134674;-80
2021/03/12 21:09:56;;;;;;;20.77;7.07;;;;;;;5.36;64.01;99567.03;5160300;56;1134393;-82
2021/03/12 21:15:10;;;;;;;18.60;7.13;;;;;;;5.37;63.72;99567.39;5082690;56;1134547;-83
2021/03/12 21:20:18;;;;;;;9.97;4.40;;;;;;;5.36;63.72;99569.17;5067611;57;1134477;-84
2021/03/12 21:25:24;;;;;;;13.63;6.33;;;;;;;5.32;63.29;99555.95;5072204;56;1134696;-85
2021/03/12 21:30:30;;;;;;;12.50;4.87;;;;;;;5.32;63.54;99548.55;5052269;57;1134736;-80
2021/03/12 21:35:36;;;;;;;13.58;5.62;;;;;;;5.29;63.49;99550.91;5057296;57;1134726;-78
2021/03/12 21:40:43;;;;;;;38.70;11.83;;;;;;;5.28;63.82;99538.75;5072089;57;1134718;-84
2021/03/12 21:45:49;;;;;;;24.73;11.30;;;;;;;5.27;63.97;99527.90;5072412;57;1136439;-85
2021/03/12 21:50:54;;;;;;;21.47;9.03;;;;;;;5.22;64.07;99524.76;5073012;57;1136549;-78
2021/03/12 21:56:01;;;;;;;15.60;6.93;;;;;;;5.14;64.02;99521.86;5073456;57;1134894;-85
2021/03/12 22:01:07;;;;;;;25.20;8.63;;;;;;;5.06;64.14;99509.28;5073577;57;1134604;-82
2021/03/12 22:06:15;;;;;;;26.33;9.60;;;;;;;4.98;64.32;99506.86;5072912;57;1134610;-80
2021/03/12 22:11:26;;;;;;;;;;;;;;;4.91;64.62;99506.44;5102974;56;1134844;-82
2021/03/12 22:16:31;;;;;;;21.57;7.80;;;;;;;4.83;64.66;99497.83;5173747;56;969936;-80
2021/03/12 22:21:39;;;;;;;27.95;9.60;;;;;;;4.75;64.86;99497.98;5161446;56;1132427;-84
2021/03/12 22:26:44;;;;;;;16.27;6.87;;;;;;;4.73;64.94;99494.66;5161046;56;1134516;-87
2021/03/12 22:31:50;;;;;;;18.67;7.20;;;;;;;4.69;65.04;99483.55;5161049;56;1134438;-83
2021/03/12 22:36:55;;;;;;;17.00;6.45;;;;;;;4.68;65.07;99482.34;5160725;56;1134348;-80
2021/03/12 22:42:01;;;;;;;18.47;5.77;;;;;;;4.66;65.07;99486.84;5145525;56;1134523;-82
2021/03/12 22:47:07;;;;;;;13.32;4.42;;;;;;;4.63;65.09;99483.13;5143890;56;1134932;-81
2021/03/12 22:52:14;;;;;;;18.43;6.63;;;;;;;4.53;65.21;99456.28;5144432;56;1134355;-77
2021/03/12 22:57:25;;;;;;;10.83;5.67;;;;;;;4.53;65.21;99456.28;5125886;56;1134321;-79
2021/03/12 23:02:30;;;;;;;16.70;6.50;;;;;;;4.57;65.13;99465.61;5132158;56;1134460;-80
2021/03/12 23:07:36;;;;;;;12.13;4.30;;;;;;;4.54;65.16;99445.34;5134163;56;1134585;-79
2021/03/12 23:12:42;;;;;;;17.17;5.60;;;;;;;4.54;65.04;99446.18;5124320;56;1134376;-80
2021/03/12 23:17:51;;;;;;;15.43;5.73;;;;;;;4.56;65.06;99437.75;5120472;56;1134730;-83
2021/03/12 23:22:58;;;;;;;14.97;5.30;;;;;;;4.57;65.01;99426.80;5073528;57;1134415;-78
2021/03/12 23:28:11;;;;;;;13.63;5.07;;;;;;;4.56;65.00;99425.97;5073717;57;1134775;-78
2021/03/12 23:33:40;;;;;;;22.10;7.42;;;;;;;4.57;64.83;99420.26;5073421;57;1134896;-78
2021/03/12 23:38:42;;;;;;;14.45;5.67;;;;;;;4.57;65.02;99415.86;5069825;57;1135179;-83
2021/03/12 23:43:49;;;;;;;16.30;5.40;;;;;;;4.58;65.05;99414.08;5073119;57;1134521;-82
2021/03/12 23:48:55;;;;;;;13.60;4.90;;;;;;;4.58;64.96;99403.09;5072990;57;1134414;-80